sensor_id;sensor_type;location;lat;lon;timestamp;P1;P2;P0
72854;PMS7003;60991;51.278;22.550;2024-01-10T00:00:53;43.67;39.00;24.33
72854;PMS7003;60991;51.278;22.550;2024-01-10T00:02:24;52.67;42.33;25.67
72854;PMS7003;60991;51.278;22.550;2024-01-10T00:03:54;54.00;46.75;29.00
72854;PMS7003;60991;51.278;22.550;2024-01-10T00:05:25;38.33;34.67;23.00
72854;PMS7003;60991;51.278;22.550;2024-01-10T00:06:55;67.00;45.00;28.00
72854;PMS7003;60991;51.278;22.550;2024-01-10T00:08:25;65.00;47.33;30.33
72854;PMS7003;60991;51.278;22.550;2024-01-10T00:09:55;54.00;42.67;28.00
72854;PMS7003;60991;51.278;22.550;2024-01-10T00:11:25;59.67;50.33;29.67
72854;PMS7003;60991;51.278;22.550;2024-01-10T00:12:56;61.00;49.00;30.00
72854;PMS7003;60991;51.278;22.550;2024-01-10T00:14:26;64.00;50.67;27.67
72854;PMS7003;60991;51.278;22.550;2024-01-10T00:15:56;54.67;48.00;30.33
72854;PMS7003;60991;51.278;22.550;2024-01-10T00:17:26;54.33;41.33;25.00
72854;PMS7003;60991;51.278;22.550;2024-01-10T00:18:56;59.67;49.00;30.00
72854;PMS7003;60991;51.278;22.550;2024-01-10T00:20:27;66.67;50.67;33.00
72854;PMS7003;60991;51.278;22.550;2024-01-10T00:21:57;56.67;44.67;30.00
72854;PMS7003;60991;51.278;22.550;2024-01-10T00:23:27;61.67;39.67;22.67
72854;PMS7003;60991;51.278;22.550;2024-01-10T00:24:57;44.00;33.33;22.67
72854;PMS7003;60991;51.278;22.550;2024-01-10T00:26:27;63.00;44.67;27.33
72854;PMS7003;60991;51.278;22.550;2024-01-10T00:27:58;65.33;46.67;27.00
72854;PMS7003;60991;51.278;22.550;2024-01-10T00:29:28;58.67;42.67;27.33
72854;PMS7003;60991;51.278;22.550;2024-01-10T00:30:58;67.00;51.67;30.00
72854;PMS7003;60991;51.278;22.550;2024-01-10T00:32:28;50.67;41.33;23.67
72854;PMS7003;60991;51.278;22.550;2024-01-10T00:33:58;63.00;49.67;30.00
72854;PMS7003;60991;51.278;22.550;2024-01-10T00:35:29;49.33;43.67;30.33
72854;PMS7003;60991;51.278;22.550;2024-01-10T00:36:59;67.67;48.33;30.00
72854;PMS7003;60991;51.278;22.550;2024-01-10T00:38:29;65.67;49.00;30.67
72854;PMS7003;60991;51.278;22.550;2024-01-10T00:39:59;49.67;44.00;26.33
72854;PMS7003;60991;51.278;22.550;2024-01-10T00:41:29;54.00;43.00;28.67
72854;PMS7003;60991;51.278;22.550;2024-01-10T00:43:00;69.33;48.33;31.00
72854;PMS7003;60991;51.278;22.550;2024-01-10T00:44:30;59.00;45.00;24.00
72854;PMS7003;60991;51.278;22.550;2024-01-10T00:46:01;59.67;43.67;27.00
72854;PMS7003;60991;51.278;22.550;2024-01-10T00:47:31;58.00;48.00;30.00
72854;PMS7003;60991;51.278;22.550;2024-01-10T00:49:01;60.67;44.33;25.67
72854;PMS7003;60991;51.278;22.550;2024-01-10T00:50:31;55.00;42.33;30.00
72854;PMS7003;60991;51.278;22.550;2024-01-10T00:52:01;58.67;48.67;30.00
72854;PMS7003;60991;51.278;22.550;2024-01-10T00:53:32;66.50;51.00;30.00
72854;PMS7003;60991;51.278;22.550;2024-01-10T00:55:02;64.67;51.33;29.33
72854;PMS7003;60991;51.278;22.550;2024-01-10T00:56:32;74.25;54.25;33.25
72854;PMS7003;60991;51.278;22.550;2024-01-10T00:58:02;57.33;46.00;26.33
72854;PMS7003;60991;51.278;22.550;2024-01-10T00:59:33;69.50;55.50;33.25
72854;PMS7003;60991;51.278;22.550;2024-01-10T01:01:03;55.00;45.00;30.00
72854;PMS7003;60991;51.278;22.550;2024-01-10T01:02:33;68.25;48.25;30.25
72854;PMS7003;60991;51.278;22.550;2024-01-10T01:04:03;77.33;51.00;33.67
72854;PMS7003;60991;51.278;22.550;2024-01-10T01:05:34;67.00;49.67;30.00
72854;PMS7003;60991;51.278;22.550;2024-01-10T01:07:04;65.33;50.33;31.00
72854;PMS7003;60991;51.278;22.550;2024-01-10T01:08:34;60.67;48.67;31.00
72854;PMS7003;60991;51.278;22.550;2024-01-10T01:10:05;70.67;51.67;33.00
72854;PMS7003;60991;51.278;22.550;2024-01-10T01:11:35;64.00;48.75;30.00
72854;PMS7003;60991;51.278;22.550;2024-01-10T01:13:06;68.33;50.33;30.00
72854;PMS7003;60991;51.278;22.550;2024-01-10T01:14:36;61.00;49.00;30.00
72854;PMS7003;60991;51.278;22.550;2024-01-10T01:16:06;53.67;47.33;27.00
72854;PMS7003;60991;51.278;22.550;2024-01-10T01:17:36;52.33;39.00;21.33
72854;PMS7003;60991;51.278;22.550;2024-01-10T01:19:06;54.33;48.00;29.33
72854;PMS7003;60991;51.278;22.550;2024-01-10T01:20:37;55.67;44.00;26.33
72854;PMS7003;60991;51.278;22.550;2024-01-10T01:22:07;52.67;45.00;29.33
72854;PMS7003;60991;51.278;22.550;2024-01-10T01:23:37;77.33;51.00;30.00
72854;PMS7003;60991;51.278;22.550;2024-01-10T01:25:07;64.00;46.67;28.00
72854;PMS7003;60991;51.278;22.550;2024-01-10T01:26:38;50.00;42.00;24.00
72854;PMS7003;60991;51.278;22.550;2024-01-10T01:28:08;51.67;46.33;28.00
72854;PMS7003;60991;51.278;22.550;2024-01-10T01:29:38;68.33;48.00;30.67
72854;PMS7003;60991;51.278;22.550;2024-01-10T01:31:08;59.33;45.33;28.67
72854;PMS7003;60991;51.278;22.550;2024-01-10T01:32:39;36.75;31.25;17.50
72854;PMS7003;60991;51.278;22.550;2024-01-10T01:34:09;32.33;23.67;15.00
72854;PMS7003;60991;51.278;22.550;2024-01-10T01:35:39;56.67;45.33;30.00
72854;PMS7003;60991;51.278;22.550;2024-01-10T01:37:09;36.33;36.33;24.33
72854;PMS7003;60991;51.278;22.550;2024-01-10T01:38:39;55.00;45.00;18.00
72854;PMS7003;60991;51.278;22.550;2024-01-10T01:40:10;50.67;40.33;22.00
72854;PMS7003;60991;51.278;22.550;2024-01-10T01:41:40;59.75;45.00;30.00
72854;PMS7003;60991;51.278;22.550;2024-01-10T01:43:20;45.00;36.67;26.33
72854;PMS7003;60991;51.278;22.550;2024-01-10T01:44:51;47.75;40.50;23.50
72854;PMS7003;60991;51.278;22.550;2024-01-10T01:46:21;63.33;44.67;19.00
72854;PMS7003;60991;51.278;22.550;2024-01-10T01:47:52;44.25;37.25;26.50
72854;PMS7003;60991;51.278;22.550;2024-01-10T01:49:23;58.33;45.67;27.00
72854;PMS7003;60991;51.278;22.550;2024-01-10T01:50:55;48.25;36.50;22.00
72854;PMS7003;60991;51.278;22.550;2024-01-10T01:52:29;35.00;27.50;18.50
72854;PMS7003;60991;51.278;22.550;2024-01-10T01:54:00;63.75;49.00;27.50
72854;PMS7003;60991;51.278;22.550;2024-01-10T01:55:30;63.75;40.25;17.50
72854;PMS7003;60991;51.278;22.550;2024-01-10T01:57:01;45.33;41.33;25.67
72854;PMS7003;60991;51.278;22.550;2024-01-10T01:58:31;55.75;46.25;28.00
72854;PMS7003;60991;51.278;22.550;2024-01-10T02:00:02;47.75;37.25;28.25
72854;PMS7003;60991;51.278;22.550;2024-01-10T02:01:32;66.00;45.50;28.50
72854;PMS7003;60991;51.278;22.550;2024-01-10T02:03:03;45.50;35.00;27.00
72854;PMS7003;60991;51.278;22.550;2024-01-10T02:04:35;44.75;36.75;25.75
72854;PMS7003;60991;51.278;22.550;2024-01-10T02:06:06;58.25;40.50;24.00
72854;PMS7003;60991;51.278;22.550;2024-01-10T02:07:36;60.67;46.33;29.33
72854;PMS7003;60991;51.278;22.550;2024-01-10T02:09:06;48.00;42.67;25.00
72854;PMS7003;60991;51.278;22.550;2024-01-10T02:10:37;40.67;36.00;25.33
72854;PMS7003;60991;51.278;22.550;2024-01-10T02:12:07;49.33;41.33;24.33
72854;PMS7003;60991;51.278;22.550;2024-01-10T02:13:37;54.33;44.33;27.00
72854;PMS7003;60991;51.278;22.550;2024-01-10T02:15:08;49.50;45.50;29.00
72854;PMS7003;60991;51.278;22.550;2024-01-10T02:16:38;32.50;28.25;21.00
72854;PMS7003;60991;51.278;22.550;2024-01-10T02:18:08;54.67;45.33;28.00
72854;PMS7003;60991;51.278;22.550;2024-01-10T02:19:38;44.00;32.67;18.67
72854;PMS7003;60991;51.278;22.550;2024-01-10T02:21:09;50.00;43.00;22.00
72854;PMS7003;60991;51.278;22.550;2024-01-10T02:22:39;51.33;36.67;24.33
72854;PMS7003;60991;51.278;22.550;2024-01-10T02:24:09;49.00;38.25;27.25
72854;PMS7003;60991;51.278;22.550;2024-01-10T02:25:40;47.67;41.67;25.67
72854;PMS7003;60991;51.278;22.550;2024-01-10T02:27:10;31.25;23.25;15.00
72854;PMS7003;60991;51.278;22.550;2024-01-10T02:28:41;56.25;46.75;24.75
72854;PMS7003;60991;51.278;22.550;2024-01-10T02:30:11;44.00;36.67;23.33
72854;PMS7003;60991;51.278;22.550;2024-01-10T02:31:41;56.50;42.50;25.00
72854;PMS7003;60991;51.278;22.550;2024-01-10T02:33:11;48.67;37.67;25.33
72854;PMS7003;60991;51.278;22.550;2024-01-10T02:34:42;43.67;37.67;20.33
72854;PMS7003;60991;51.278;22.550;2024-01-10T02:36:12;46.00;39.33;24.00
72854;PMS7003;60991;51.278;22.550;2024-01-10T02:37:42;40.33;26.33;19.67
72854;PMS7003;60991;51.278;22.550;2024-01-10T02:39:12;49.33;33.00;18.67
72854;PMS7003;60991;51.278;22.550;2024-01-10T02:40:42;43.67;33.33;23.33
72854;PMS7003;60991;51.278;22.550;2024-01-10T02:42:13;43.00;37.00;22.00
72854;PMS7003;60991;51.278;22.550;2024-01-10T02:43:43;50.67;36.67;22.00
72854;PMS7003;60991;51.278;22.550;2024-01-10T02:45:13;45.67;34.33;24.67
72854;PMS7003;60991;51.278;22.550;2024-01-10T02:46:43;28.33;21.33;16.00
72854;PMS7003;60991;51.278;22.550;2024-01-10T02:48:14;33.33;27.33;15.00
72854;PMS7003;60991;51.278;22.550;2024-01-10T02:49:44;46.00;34.67;21.00
72854;PMS7003;60991;51.278;22.550;2024-01-10T02:51:14;50.33;34.00;22.00
72854;PMS7003;60991;51.278;22.550;2024-01-10T02:52:44;38.33;25.33;12.67
72854;PMS7003;60991;51.278;22.550;2024-01-10T02:54:14;43.33;34.67;22.67
72854;PMS7003;60991;51.278;22.550;2024-01-10T02:55:45;35.67;23.67;12.67
72854;PMS7003;60991;51.278;22.550;2024-01-10T02:57:15;44.33;35.00;21.00
72854;PMS7003;60991;51.278;22.550;2024-01-10T02:58:45;38.67;31.00;18.33
72854;PMS7003;60991;51.278;22.550;2024-01-10T03:00:15;39.33;32.33;21.00
72854;PMS7003;60991;51.278;22.550;2024-01-10T03:01:46;51.25;34.50;19.00
72854;PMS7003;60991;51.278;22.550;2024-01-10T03:03:16;36.25;29.25;14.50
72854;PMS7003;60991;51.278;22.550;2024-01-10T03:04:47;44.33;28.00;15.00
72854;PMS7003;60991;51.278;22.550;2024-01-10T03:06:17;41.25;31.50;24.25
72854;PMS7003;60991;51.278;22.550;2024-01-10T03:07:48;26.67;16.00;7.00
72854;PMS7003;60991;51.278;22.550;2024-01-10T03:09:18;42.33;34.67;21.67
72854;PMS7003;60991;51.278;22.550;2024-01-10T03:10:48;44.67;36.67;23.33
72854;PMS7003;60991;51.278;22.550;2024-01-10T03:12:18;42.00;34.00;21.67
72854;PMS7003;60991;51.278;22.550;2024-01-10T03:13:49;54.33;35.67;19.00
72854;PMS7003;60991;51.278;22.550;2024-01-10T03:15:21;39.75;35.25;22.00
72854;PMS7003;60991;51.278;22.550;2024-01-10T03:16:51;51.00;44.33;23.33
72854;PMS7003;60991;51.278;22.550;2024-01-10T03:18:22;35.67;33.33;20.33
72854;PMS7003;60991;51.278;22.550;2024-01-10T03:19:53;32.75;32.75;19.50
72854;PMS7003;60991;51.278;22.550;2024-01-10T03:21:23;32.67;27.00;21.00
72854;PMS7003;60991;51.278;22.550;2024-01-10T03:22:54;31.67;29.33;22.33
72854;PMS7003;60991;51.278;22.550;2024-01-10T03:24:24;39.00;35.67;24.00
72854;PMS7003;60991;51.278;22.550;2024-01-10T03:25:55;44.00;37.00;22.00
72854;PMS7003;60991;51.278;22.550;2024-01-10T03:27:26;45.50;38.50;24.00
72854;PMS7003;60991;51.278;22.550;2024-01-10T03:28:56;38.67;33.33;22.67
72854;PMS7003;60991;51.278;22.550;2024-01-10T03:30:27;40.50;36.25;22.50
72854;PMS7003;60991;51.278;22.550;2024-01-10T03:31:57;46.33;40.00;24.00
72854;PMS7003;60991;51.278;22.550;2024-01-10T03:33:27;37.67;29.00;17.67
72854;PMS7003;60991;51.278;22.550;2024-01-10T03:34:57;30.00;26.33;13.00
72854;PMS7003;60991;51.278;22.550;2024-01-10T03:36:27;46.00;36.67;24.33
72854;PMS7003;60991;51.278;22.550;2024-01-10T03:37:57;27.00;26.00;11.00
72854;PMS7003;60991;51.278;22.550;2024-01-10T03:39:28;40.00;32.00;21.33
72854;PMS7003;60991;51.278;22.550;2024-01-10T03:40:58;40.00;30.33;21.00
72854;PMS7003;60991;51.278;22.550;2024-01-10T03:42:28;43.33;34.67;22.67
72854;PMS7003;60991;51.278;22.550;2024-01-10T03:43:58;34.67;27.33;18.33
72854;PMS7003;60991;51.278;22.550;2024-01-10T03:45:28;56.33;42.00;22.67
72854;PMS7003;60991;51.278;22.550;2024-01-10T03:46:59;48.00;36.33;21.67
72854;PMS7003;60991;51.278;22.550;2024-01-10T03:48:29;35.33;32.00;21.00
72854;PMS7003;60991;51.278;22.550;2024-01-10T03:49:59;48.33;38.33;24.00
72854;PMS7003;60991;51.278;22.550;2024-01-10T03:51:29;50.33;43.33;27.33
72854;PMS7003;60991;51.278;22.550;2024-01-10T03:52:59;38.00;27.33;21.67
72854;PMS7003;60991;51.278;22.550;2024-01-10T03:54:30;45.00;37.67;24.00
72854;PMS7003;60991;51.278;22.550;2024-01-10T03:56:03;52.00;40.00;24.33
72854;PMS7003;60991;51.278;22.550;2024-01-10T03:57:34;44.75;33.50;22.25
72854;PMS7003;60991;51.278;22.550;2024-01-10T03:59:04;43.50;34.25;21.00
72854;PMS7003;60991;51.278;22.550;2024-01-10T04:00:34;49.67;36.33;25.00
72854;PMS7003;60991;51.278;22.550;2024-01-10T04:02:05;49.67;40.00;25.67
72854;PMS7003;60991;51.278;22.550;2024-01-10T04:03:35;48.67;45.00;27.67
72854;PMS7003;60991;51.278;22.550;2024-01-10T04:05:09;49.75;32.50;20.00
72854;PMS7003;60991;51.278;22.550;2024-01-10T04:06:39;47.00;39.75;27.75
72854;PMS7003;60991;51.278;22.550;2024-01-10T04:08:10;54.33;37.67;17.33
72854;PMS7003;60991;51.278;22.550;2024-01-10T04:09:40;46.67;41.33;24.67
72854;PMS7003;60991;51.278;22.550;2024-01-10T04:11:10;40.00;34.67;24.00
72854;PMS7003;60991;51.278;22.550;2024-01-10T04:12:40;35.33;32.67;21.00
72854;PMS7003;60991;51.278;22.550;2024-01-10T04:14:10;49.67;40.00;28.00
72854;PMS7003;60991;51.278;22.550;2024-01-10T04:15:41;42.00;36.33;22.67
72854;PMS7003;60991;51.278;22.550;2024-01-10T04:17:11;41.00;31.67;16.00
72854;PMS7003;60991;51.278;22.550;2024-01-10T04:18:41;48.00;33.00;17.33
72854;PMS7003;60991;51.278;22.550;2024-01-10T04:20:11;40.00;25.33;16.67
72854;PMS7003;60991;51.278;22.550;2024-01-10T04:21:41;33.75;29.75;18.25
72854;PMS7003;60991;51.278;22.550;2024-01-10T04:23:12;43.33;36.00;23.67
72854;PMS7003;60991;51.278;22.550;2024-01-10T04:24:42;45.33;38.67;24.00
72854;PMS7003;60991;51.278;22.550;2024-01-10T04:26:12;38.33;32.33;26.33
72854;PMS7003;60991;51.278;22.550;2024-01-10T04:27:42;39.33;34.67;20.00
72854;PMS7003;60991;51.278;22.550;2024-01-10T04:29:12;48.00;35.33;21.67
72854;PMS7003;60991;51.278;22.550;2024-01-10T04:30:43;46.67;38.67;21.00
72854;PMS7003;60991;51.278;22.550;2024-01-10T04:32:13;42.00;31.67;21.67
72854;PMS7003;60991;51.278;22.550;2024-01-10T04:33:43;37.33;29.67;18.33
72854;PMS7003;60991;51.278;22.550;2024-01-10T04:35:13;39.33;27.67;19.00
72854;PMS7003;60991;51.278;22.550;2024-01-10T04:36:43;47.33;38.00;24.67
72854;PMS7003;60991;51.278;22.550;2024-01-10T04:38:14;41.67;29.00;19.67
72854;PMS7003;60991;51.278;22.550;2024-01-10T04:39:44;45.00;40.33;22.33
72854;PMS7003;60991;51.278;22.550;2024-01-10T04:41:14;38.33;30.67;19.00
72854;PMS7003;60991;51.278;22.550;2024-01-10T04:42:44;37.67;30.33;18.33
72854;PMS7003;60991;51.278;22.550;2024-01-10T04:44:14;57.67;42.33;23.33
72854;PMS7003;60991;51.278;22.550;2024-01-10T04:45:45;40.33;31.00;19.67
72854;PMS7003;60991;51.278;22.550;2024-01-10T04:47:15;45.67;28.67;19.67
72854;PMS7003;60991;51.278;22.550;2024-01-10T04:48:45;46.00;34.67;27.00
72854;PMS7003;60991;51.278;22.550;2024-01-10T04:50:15;40.33;29.33;19.00
72854;PMS7003;60991;51.278;22.550;2024-01-10T04:51:46;35.33;33.33;22.00
72854;PMS7003;60991;51.278;22.550;2024-01-10T04:53:16;42.50;34.00;18.00
72854;PMS7003;60991;51.278;22.550;2024-01-10T04:54:46;34.33;30.33;18.00
72854;PMS7003;60991;51.278;22.550;2024-01-10T04:56:17;40.00;21.67;5.33
72854;PMS7003;60991;51.278;22.550;2024-01-10T04:57:47;36.50;30.50;18.50
72854;PMS7003;60991;51.278;22.550;2024-01-10T04:59:18;31.67;27.00;16.00
72854;PMS7003;60991;51.278;22.550;2024-01-10T05:00:48;26.67;20.33;15.00
72854;PMS7003;60991;51.278;22.550;2024-01-10T05:02:18;33.33;26.33;18.00
72854;PMS7003;60991;51.278;22.550;2024-01-10T05:03:48;38.00;31.50;22.50
72854;PMS7003;60991;51.278;22.550;2024-01-10T05:05:19;45.25;26.25;15.75
72854;PMS7003;60991;51.278;22.550;2024-01-10T05:06:49;35.33;28.33;16.67
72854;PMS7003;60991;51.278;22.550;2024-01-10T05:08:19;35.00;28.67;15.67
72854;PMS7003;60991;51.278;22.550;2024-01-10T05:09:49;41.67;33.33;21.67
72854;PMS7003;60991;51.278;22.550;2024-01-10T05:11:19;28.00;25.00;13.67
72854;PMS7003;60991;51.278;22.550;2024-01-10T05:12:50;34.00;27.50;15.75
72854;PMS7003;60991;51.278;22.550;2024-01-10T05:14:20;32.33;27.00;18.00
72854;PMS7003;60991;51.278;22.550;2024-01-10T05:15:50;34.67;27.67;21.00
72854;PMS7003;60991;51.278;22.550;2024-01-10T05:17:20;48.00;37.00;19.00
72854;PMS7003;60991;51.278;22.550;2024-01-10T05:18:51;35.33;31.67;21.33
72854;PMS7003;60991;51.278;22.550;2024-01-10T05:20:21;40.67;33.00;22.00
72854;PMS7003;60991;51.278;22.550;2024-01-10T05:21:51;25.33;19.67;15.00
72854;PMS7003;60991;51.278;22.550;2024-01-10T05:23:21;43.25;31.75;15.50
72854;PMS7003;60991;51.278;22.550;2024-01-10T05:24:51;27.33;19.33;7.00
72854;PMS7003;60991;51.278;22.550;2024-01-10T05:26:22;25.33;20.67;13.00
72854;PMS7003;60991;51.278;22.550;2024-01-10T05:27:52;40.67;27.67;18.00
72854;PMS7003;60991;51.278;22.550;2024-01-10T05:29:22;41.75;24.75;18.00
72854;PMS7003;60991;51.278;22.550;2024-01-10T05:30:52;33.67;30.00;21.67
72854;PMS7003;60991;51.278;22.550;2024-01-10T05:32:23;29.00;25.67;15.00
72854;PMS7003;60991;51.278;22.550;2024-01-10T05:33:53;33.33;30.00;18.67
72854;PMS7003;60991;51.278;22.550;2024-01-10T05:35:23;30.33;24.33;15.00
72854;PMS7003;60991;51.278;22.550;2024-01-10T05:36:53;38.50;27.00;17.00
72854;PMS7003;60991;51.278;22.550;2024-01-10T05:38:24;36.67;27.00;19.33
72854;PMS7003;60991;51.278;22.550;2024-01-10T05:39:54;37.00;30.00;19.67
72854;PMS7003;60991;51.278;22.550;2024-01-10T05:41:24;34.00;26.33;18.00
72854;PMS7003;60991;51.278;22.550;2024-01-10T05:42:54;46.33;41.00;24.67
72854;PMS7003;60991;51.278;22.550;2024-01-10T05:44:24;27.33;23.33;15.00
72854;PMS7003;60991;51.278;22.550;2024-01-10T05:45:55;33.00;26.33;18.33
72854;PMS7003;60991;51.278;22.550;2024-01-10T05:47:25;53.00;34.67;21.33
72854;PMS7003;60991;51.278;22.550;2024-01-10T05:48:55;33.00;25.00;18.00
72854;PMS7003;60991;51.278;22.550;2024-01-10T05:50:25;40.00;31.00;21.33
72854;PMS7003;60991;51.278;22.550;2024-01-10T05:51:55;44.67;30.00;20.33
72854;PMS7003;60991;51.278;22.550;2024-01-10T05:53:26;42.33;33.33;20.67
72854;PMS7003;60991;51.278;22.550;2024-01-10T05:54:56;45.67;33.33;21.00
72854;PMS7003;60991;51.278;22.550;2024-01-10T05:56:26;50.00;37.33;22.67
72854;PMS7003;60991;51.278;22.550;2024-01-10T05:57:56;33.33;30.00;21.00
72854;PMS7003;60991;51.278;22.550;2024-01-10T05:59:26;35.67;31.67;22.00
72854;PMS7003;60991;51.278;22.550;2024-01-10T06:00:57;44.00;36.67;26.33
72854;PMS7003;60991;51.278;22.550;2024-01-10T06:02:27;35.33;26.33;20.33
72854;PMS7003;60991;51.278;22.550;2024-01-10T06:03:57;33.67;27.67;18.33
72854;PMS7003;60991;51.278;22.550;2024-01-10T06:05:27;34.00;30.67;21.00
72854;PMS7003;60991;51.278;22.550;2024-01-10T06:06:58;47.33;35.67;24.67
72854;PMS7003;60991;51.278;22.550;2024-01-10T06:08:29;42.50;34.00;24.25
72854;PMS7003;60991;51.278;22.550;2024-01-10T06:09:59;39.33;34.67;25.00
72854;PMS7003;60991;51.278;22.550;2024-01-10T06:11:29;34.33;30.00;19.00
72854;PMS7003;60991;51.278;22.550;2024-01-10T06:12:59;42.33;33.33;18.00
72854;PMS7003;60991;51.278;22.550;2024-01-10T06:14:29;35.33;27.67;14.33
72854;PMS7003;60991;51.278;22.550;2024-01-10T06:15:59;47.33;43.00;22.67
72854;PMS7003;60991;51.278;22.550;2024-01-10T06:17:30;36.00;33.00;19.00
72854;PMS7003;60991;51.278;22.550;2024-01-10T06:19:00;41.67;29.00;18.67
72854;PMS7003;60991;51.278;22.550;2024-01-10T06:20:30;41.75;30.50;19.50
72854;PMS7003;60991;51.278;22.550;2024-01-10T06:22:01;35.00;22.67;16.00
72854;PMS7003;60991;51.278;22.550;2024-01-10T06:23:31;48.33;41.33;22.00
72854;PMS7003;60991;51.278;22.550;2024-01-10T06:25:01;50.67;30.67;19.67
72854;PMS7003;60991;51.278;22.550;2024-01-10T06:26:31;24.00;16.25;7.50
72854;PMS7003;60991;51.278;22.550;2024-01-10T06:28:02;37.33;29.33;21.00
72854;PMS7003;60991;51.278;22.550;2024-01-10T06:29:32;28.67;25.67;18.67
72854;PMS7003;60991;51.278;22.550;2024-01-10T06:31:02;37.25;31.00;21.25
72854;PMS7003;60991;51.278;22.550;2024-01-10T06:32:32;34.67;26.33;17.33
72854;PMS7003;60991;51.278;22.550;2024-01-10T06:34:03;40.00;26.67;18.33
72854;PMS7003;60991;51.278;22.550;2024-01-10T06:35:33;32.00;25.67;15.33
72854;PMS7003;60991;51.278;22.550;2024-01-10T06:37:03;34.00;25.67;15.00
72854;PMS7003;60991;51.278;22.550;2024-01-10T06:38:33;31.67;24.00;18.00
72854;PMS7003;60991;51.278;22.550;2024-01-10T06:40:04;34.33;27.67;16.67
72854;PMS7003;60991;51.278;22.550;2024-01-10T06:41:34;34.25;30.25;19.00
72854;PMS7003;60991;51.278;22.550;2024-01-10T06:43:04;40.33;32.33;17.33
72854;PMS7003;60991;51.278;22.550;2024-01-10T06:44:35;34.67;26.67;16.33
72854;PMS7003;60991;51.278;22.550;2024-01-10T06:46:05;29.00;22.67;16.67
72854;PMS7003;60991;51.278;22.550;2024-01-10T06:47:35;31.33;24.00;15.33
72854;PMS7003;60991;51.278;22.550;2024-01-10T06:49:05;34.00;28.67;19.00
72854;PMS7003;60991;51.278;22.550;2024-01-10T06:50:36;31.00;23.33;13.67
72854;PMS7003;60991;51.278;22.550;2024-01-10T06:52:07;31.00;20.50;16.00
72854;PMS7003;60991;51.278;22.550;2024-01-10T06:53:37;27.33;24.67;16.00
72854;PMS7003;60991;51.278;22.550;2024-01-10T06:55:07;26.67;23.67;15.33
72854;PMS7003;60991;51.278;22.550;2024-01-10T06:56:37;34.50;27.50;14.00
72854;PMS7003;60991;51.278;22.550;2024-01-10T06:58:08;29.00;23.33;15.00
72854;PMS7003;60991;51.278;22.550;2024-01-10T06:59:38;23.67;20.33;13.00
72854;PMS7003;60991;51.278;22.550;2024-01-10T07:01:11;31.67;28.67;18.00
72854;PMS7003;60991;51.278;22.550;2024-01-10T07:02:42;26.00;23.00;16.00
72854;PMS7003;60991;51.278;22.550;2024-01-10T07:04:12;36.00;25.67;15.00
72854;PMS7003;60991;51.278;22.550;2024-01-10T07:05:42;33.67;21.67;18.00
72854;PMS7003;60991;51.278;22.550;2024-01-10T07:07:13;34.00;25.00;20.33
72854;PMS7003;60991;51.278;22.550;2024-01-10T07:08:44;34.50;27.25;16.00
72854;PMS7003;60991;51.278;22.550;2024-01-10T07:10:16;36.50;29.50;18.25
72854;PMS7003;60991;51.278;22.550;2024-01-10T07:11:46;35.67;24.67;18.00
72854;PMS7003;60991;51.278;22.550;2024-01-10T07:13:17;36.25;27.25;17.00
72854;PMS7003;60991;51.278;22.550;2024-01-10T07:14:47;35.33;26.67;20.33
72854;PMS7003;60991;51.278;22.550;2024-01-10T07:16:17;41.67;31.00;18.00
72854;PMS7003;60991;51.278;22.550;2024-01-10T07:17:48;27.00;23.33;15.33
72854;PMS7003;60991;51.278;22.550;2024-01-10T07:19:18;31.25;23.00;16.00
72854;PMS7003;60991;51.278;22.550;2024-01-10T07:20:48;28.33;25.33;18.00
72854;PMS7003;60991;51.278;22.550;2024-01-10T07:22:19;32.67;28.00;19.00
72854;PMS7003;60991;51.278;22.550;2024-01-10T07:23:49;35.33;26.00;15.67
72854;PMS7003;60991;51.278;22.550;2024-01-10T07:25:19;32.67;31.67;21.00
72854;PMS7003;60991;51.278;22.550;2024-01-10T07:26:49;35.00;30.67;19.00
72854;PMS7003;60991;51.278;22.550;2024-01-10T07:28:19;27.00;20.33;12.00
72854;PMS7003;60991;51.278;22.550;2024-01-10T07:29:50;41.00;34.00;18.75
72854;PMS7003;60991;51.278;22.550;2024-01-10T07:31:20;50.33;36.00;16.00
72854;PMS7003;60991;51.278;22.550;2024-01-10T07:32:50;46.67;39.67;21.67
72854;PMS7003;60991;51.278;22.550;2024-01-10T07:34:21;35.67;28.67;18.00
72854;PMS7003;60991;51.278;22.550;2024-01-10T07:35:51;40.33;30.33;18.67
72854;PMS7003;60991;51.278;22.550;2024-01-10T07:37:21;35.67;28.00;20.33
72854;PMS7003;60991;51.278;22.550;2024-01-10T07:38:51;30.33;24.67;15.33
72854;PMS7003;60991;51.278;22.550;2024-01-10T07:40:22;27.75;24.25;16.75
72854;PMS7003;60991;51.278;22.550;2024-01-10T07:41:52;28.00;24.33;18.00
72854;PMS7003;60991;51.278;22.550;2024-01-10T07:43:22;25.67;22.00;16.00
72854;PMS7003;60991;51.278;22.550;2024-01-10T07:44:52;32.33;27.00;17.33
72854;PMS7003;60991;51.278;22.550;2024-01-10T07:46:22;27.00;21.67;17.67
72854;PMS7003;60991;51.278;22.550;2024-01-10T07:47:53;35.33;28.33;18.00
72854;PMS7003;60991;51.278;22.550;2024-01-10T07:49:23;29.00;24.50;16.50
72854;PMS7003;60991;51.278;22.550;2024-01-10T07:50:53;41.67;31.00;19.00
72854;PMS7003;60991;51.278;22.550;2024-01-10T07:52:23;27.00;27.00;18.33
72854;PMS7003;60991;51.278;22.550;2024-01-10T07:53:54;28.67;27.33;15.33
72854;PMS7003;60991;51.278;22.550;2024-01-10T07:55:24;41.33;27.67;18.00
72854;PMS7003;60991;51.278;22.550;2024-01-10T07:56:54;31.67;25.67;16.00
72854;PMS7003;60991;51.278;22.550;2024-01-10T07:58:24;33.33;29.33;20.33
72854;PMS7003;60991;51.278;22.550;2024-01-10T07:59:55;34.75;27.50;16.00
72854;PMS7003;60991;51.278;22.550;2024-01-10T08:01:25;27.33;19.67;11.33
72854;PMS7003;60991;51.278;22.550;2024-01-10T08:02:55;40.00;31.00;21.67
72854;PMS7003;60991;51.278;22.550;2024-01-10T08:04:25;31.00;27.00;18.67
72854;PMS7003;60991;51.278;22.550;2024-01-10T08:05:56;35.75;23.75;16.00
72854;PMS7003;60991;51.278;22.550;2024-01-10T08:07:26;36.33;29.33;18.00
72854;PMS7003;60991;51.278;22.550;2024-01-10T08:08:57;34.25;31.00;20.50
72854;PMS7003;60991;51.278;22.550;2024-01-10T08:10:27;36.33;30.00;18.00
72854;PMS7003;60991;51.278;22.550;2024-01-10T08:11:57;28.67;24.33;12.67
72854;PMS7003;60991;51.278;22.550;2024-01-10T08:13:27;42.67;37.00;24.00
72854;PMS7003;60991;51.278;22.550;2024-01-10T08:14:57;29.00;27.67;18.33
72854;PMS7003;60991;51.278;22.550;2024-01-10T08:16:28;42.75;28.00;14.75
72854;PMS7003;60991;51.278;22.550;2024-01-10T08:17:58;30.67;26.33;18.33
72854;PMS7003;60991;51.278;22.550;2024-01-10T08:19:28;37.33;32.67;24.00